메인 페이지
METAR-TAF:

METAR-TAF

공항 :

브루나이 국제공항

브루나이, 브루나이

위도: 04-56N, 경도: 114-56E, 고도: 22m

현재 날씨관측

예보는 26분 전, 20:30시(UTC)에 발표되었습니다.
남서3kt
온도 25°C
습도 94%
기압 1009 hPa
시정: 8000m
고도 1400ft 상공 구름 조금
고도 28000ft 상공 구름 많음

METAR: WBSB 202030Z 22003KT 8000 FEW014 BKN280 25/24 Q1009 NOSIG

시각: 04:56 (20:56 UTC)

예보

예보는 3 시간 56분 전, 17:00시(UTC)에 발표되었습니다.
예보 대상 시간: 20일 18시부터 22일 00시까지 (UTC)
남남서4kt
시정: 8000m
고도 1500ft 상공 구름 조금
전환 중
21일 04시부터 21일 06시까지 (UTC)
서북서8kt
고도 1600ft 상공 구름 조금
고도 1700ft 상공 구름 조금, 적란운.

TAF: WBSB 201700Z 2018/2200 20004KT 8000 FEW015 BECMG 2104/2106 30008KT FEW016 FEW017CB

4,000개 이상의 공항 관측 자료 및 예보 (METAR 및 TAF 보고).

지도상에서 검색 가능한 기상관측소가 노란 점과 빨간 점으로 표시되어 있습니다.

기상관측소 명을 보려면 표시 위로 마우스를 이동하세요.

날씨 관측과 예보를 보려면 클릭하세요.

지도 변경 : 확대하려면 엑스 표시가 있는 녹색 버튼, 축소하려면 빼기 표시가 있는 녹색 버튼, 다음 페이지의 지도를 보려면 녹색 화살표를 클릭하세요.


METAR-TAF: